sensor_id;sensor_type;location;lat;lon;timestamp;temperature;humidity
81867;DHT22;71318;-36.550;-64.300;2023-08-17T00:01:04;10.10;72.50
81867;DHT22;71318;-36.550;-64.300;2023-08-17T00:03:30;10.00;72.60
81867;DHT22;71318;-36.550;-64.300;2023-08-17T00:05:56;9.90;72.80
81867;DHT22;71318;-36.550;-64.300;2023-08-17T00:08:23;9.90;72.80
81867;DHT22;71318;-36.550;-64.300;2023-08-17T00:10:49;10.10;72.00
81867;DHT22;71318;-36.550;-64.300;2023-08-17T00:13:16;9.90;72.40
81867;DHT22;71318;-36.550;-64.300;2023-08-17T00:15:42;9.80;72.70
81867;DHT22;71318;-36.550;-64.300;2023-08-17T00:18:10;9.70;73.00
81867;DHT22;71318;-36.550;-64.300;2023-08-17T00:20:37;9.70;73.10
81867;DHT22;71318;-36.550;-64.300;2023-08-17T00:23:04;9.60;73.50
81867;DHT22;71318;-36.550;-64.300;2023-08-17T00:25:30;9.50;73.70
81867;DHT22;71318;-36.550;-64.300;2023-08-17T00:27:57;9.50;73.80
81867;DHT22;71318;-36.550;-64.300;2023-08-17T00:30:23;9.40;73.90
81867;DHT22;71318;-36.550;-64.300;2023-08-17T00:32:49;9.40;73.60
81867;DHT22;71318;-36.550;-64.300;2023-08-17T00:35:16;9.40;73.40
81867;DHT22;71318;-36.550;-64.300;2023-08-17T00:37:42;9.40;73.10
81867;DHT22;71318;-36.550;-64.300;2023-08-17T00:40:09;9.30;73.00
81867;DHT22;71318;-36.550;-64.300;2023-08-17T00:42:35;9.30;72.70
81867;DHT22;71318;-36.550;-64.300;2023-08-17T00:45:02;9.30;72.70
81867;DHT22;71318;-36.550;-64.300;2023-08-17T00:47:28;9.20;72.50
81867;DHT22;71318;-36.550;-64.300;2023-08-17T00:49:56;9.40;71.50
81867;DHT22;71318;-36.550;-64.300;2023-08-17T00:52:23;9.30;71.50
81867;DHT22;71318;-36.550;-64.300;2023-08-17T00:54:49;9.30;71.50
81867;DHT22;71318;-36.550;-64.300;2023-08-17T00:57:15;9.30;71.30
81867;DHT22;71318;-36.550;-64.300;2023-08-17T00:59:42;9.30;71.40
81867;DHT22;71318;-36.550;-64.300;2023-08-17T01:02:08;9.30;71.20
81867;DHT22;71318;-36.550;-64.300;2023-08-17T01:04:35;9.20;71.50
81867;DHT22;71318;-36.550;-64.300;2023-08-17T01:07:01;9.20;71.50
81867;DHT22;71318;-36.550;-64.300;2023-08-17T01:09:28;9.20;71.40
81867;DHT22;71318;-36.550;-64.300;2023-08-17T01:12:03;9.10;71.50
81867;DHT22;71318;-36.550;-64.300;2023-08-17T01:14:39;9.10;71.30
81867;DHT22;71318;-36.550;-64.300;2023-08-17T01:20:04;9.10;71.30
81867;DHT22;71318;-36.550;-64.300;2023-08-17T01:22:31;9.10;71.40
81867;DHT22;71318;-36.550;-64.300;2023-08-17T01:24:59;9.00;71.80
81867;DHT22;71318;-36.550;-64.300;2023-08-17T01:27:25;8.90;72.10
81867;DHT22;71318;-36.550;-64.300;2023-08-17T01:29:52;8.90;72.20
81867;DHT22;71318;-36.550;-64.300;2023-08-17T01:34:47;9.00;72.00
81867;DHT22;71318;-36.550;-64.300;2023-08-17T01:37:14;9.00;72.00
81867;DHT22;71318;-36.550;-64.300;2023-08-17T01:39:44;9.00;72.00
81867;DHT22;71318;-36.550;-64.300;2023-08-17T01:42:13;9.10;71.80
81867;DHT22;71318;-36.550;-64.300;2023-08-17T01:44:39;9.10;71.90
81867;DHT22;71318;-36.550;-64.300;2023-08-17T01:47:06;9.10;71.50
81867;DHT22;71318;-36.550;-64.300;2023-08-17T01:49:32;9.10;71.80
81867;DHT22;71318;-36.550;-64.300;2023-08-17T01:51:59;9.00;72.00
81867;DHT22;71318;-36.550;-64.300;2023-08-17T01:54:26;8.90;72.40
81867;DHT22;71318;-36.550;-64.300;2023-08-17T01:56:53;8.90;72.30
81867;DHT22;71318;-36.550;-64.300;2023-08-17T01:59:19;9.10;71.90
81867;DHT22;71318;-36.550;-64.300;2023-08-17T02:01:45;9.10;71.40
81867;DHT22;71318;-36.550;-64.300;2023-08-17T02:04:12;9.20;71.30
81867;DHT22;71318;-36.550;-64.300;2023-08-17T02:06:38;9.20;70.50
81867;DHT22;71318;-36.550;-64.300;2023-08-17T02:09:07;9.20;70.50
81867;DHT22;71318;-36.550;-64.300;2023-08-17T02:11:34;9.20;70.30
81867;DHT22;71318;-36.550;-64.300;2023-08-17T02:14:00;9.30;70.40
81867;DHT22;71318;-36.550;-64.300;2023-08-17T02:16:27;9.30;70.40
81867;DHT22;71318;-36.550;-64.300;2023-08-17T02:18:53;9.30;70.20
81867;DHT22;71318;-36.550;-64.300;2023-08-17T02:21:22;9.30;70.20
81867;DHT22;71318;-36.550;-64.300;2023-08-17T02:23:49;9.20;70.20
81867;DHT22;71318;-36.550;-64.300;2023-08-17T02:26:15;9.20;70.30
81867;DHT22;71318;-36.550;-64.300;2023-08-17T02:28:41;9.30;70.20
81867;DHT22;71318;-36.550;-64.300;2023-08-17T02:31:08;9.20;70.40
81867;DHT22;71318;-36.550;-64.300;2023-08-17T02:33:34;9.20;70.70
81867;DHT22;71318;-36.550;-64.300;2023-08-17T02:36:02;9.20;71.30
81867;DHT22;71318;-36.550;-64.300;2023-08-17T02:38:32;9.30;71.60
81867;DHT22;71318;-36.550;-64.300;2023-08-17T02:40:58;9.30;72.00
81867;DHT22;71318;-36.550;-64.300;2023-08-17T02:43:24;9.30;72.90
81867;DHT22;71318;-36.550;-64.300;2023-08-17T02:45:51;9.30;73.30
81867;DHT22;71318;-36.550;-64.300;2023-08-17T02:48:20;9.40;74.20
81867;DHT22;71318;-36.550;-64.300;2023-08-17T02:50:49;9.50;75.20
81867;DHT22;71318;-36.550;-64.300;2023-08-17T02:53:16;9.60;76.60
81867;DHT22;71318;-36.550;-64.300;2023-08-17T02:55:42;9.70;78.90
81867;DHT22;71318;-36.550;-64.300;2023-08-17T02:58:08;9.80;79.10
81867;DHT22;71318;-36.550;-64.300;2023-08-17T03:00:35;9.80;79.60
81867;DHT22;71318;-36.550;-64.300;2023-08-17T03:03:04;9.80;80.30
81867;DHT22;71318;-36.550;-64.300;2023-08-17T03:05:31;9.80;80.60
81867;DHT22;71318;-36.550;-64.300;2023-08-17T03:07:57;9.80;81.20
81867;DHT22;71318;-36.550;-64.300;2023-08-17T03:10:23;9.80;81.70
81867;DHT22;71318;-36.550;-64.300;2023-08-17T03:12:50;9.70;82.60
81867;DHT22;71318;-36.550;-64.300;2023-08-17T03:15:17;9.70;82.80
81867;DHT22;71318;-36.550;-64.300;2023-08-17T03:17:43;9.60;83.50
81867;DHT22;71318;-36.550;-64.300;2023-08-17T03:20:10;9.70;83.30
81867;DHT22;71318;-36.550;-64.300;2023-08-17T03:22:36;9.60;82.60
81867;DHT22;71318;-36.550;-64.300;2023-08-17T03:25:03;9.70;82.20
81867;DHT22;71318;-36.550;-64.300;2023-08-17T03:27:29;9.70;81.90
81867;DHT22;71318;-36.550;-64.300;2023-08-17T03:29:59;9.60;82.20
81867;DHT22;71318;-36.550;-64.300;2023-08-17T03:32:25;9.60;82.10
81867;DHT22;71318;-36.550;-64.300;2023-08-17T03:34:52;9.60;82.20
81867;DHT22;71318;-36.550;-64.300;2023-08-17T03:37:18;9.60;82.10
81867;DHT22;71318;-36.550;-64.300;2023-08-17T03:39:44;9.60;82.10
81867;DHT22;71318;-36.550;-64.300;2023-08-17T03:42:11;9.60;82.30
81867;DHT22;71318;-36.550;-64.300;2023-08-17T03:44:37;9.60;82.10
81867;DHT22;71318;-36.550;-64.300;2023-08-17T03:47:04;9.60;82.20
81867;DHT22;71318;-36.550;-64.300;2023-08-17T03:49:30;9.60;82.50
81867;DHT22;71318;-36.550;-64.300;2023-08-17T03:51:56;9.60;82.50
81867;DHT22;71318;-36.550;-64.300;2023-08-17T03:54:23;9.50;83.80
81867;DHT22;71318;-36.550;-64.300;2023-08-17T03:56:49;9.50;84.20
81867;DHT22;71318;-36.550;-64.300;2023-08-17T03:59:16;9.40;84.60
81867;DHT22;71318;-36.550;-64.300;2023-08-17T04:01:42;9.40;85.00
81867;DHT22;71318;-36.550;-64.300;2023-08-17T04:04:09;9.40;85.10
81867;DHT22;71318;-36.550;-64.300;2023-08-17T04:06:36;9.30;85.50
81867;DHT22;71318;-36.550;-64.300;2023-08-17T04:09:05;9.30;85.80
81867;DHT22;71318;-36.550;-64.300;2023-08-17T04:11:31;9.30;85.80
81867;DHT22;71318;-36.550;-64.300;2023-08-17T04:13:57;9.30;86.40
81867;DHT22;71318;-36.550;-64.300;2023-08-17T04:16:24;9.20;87.10
81867;DHT22;71318;-36.550;-64.300;2023-08-17T04:18:50;9.20;87.80
81867;DHT22;71318;-36.550;-64.300;2023-08-17T04:21:16;9.20;87.60
81867;DHT22;71318;-36.550;-64.300;2023-08-17T04:23:43;9.20;87.30
81867;DHT22;71318;-36.550;-64.300;2023-08-17T04:26:09;9.20;86.30
81867;DHT22;71318;-36.550;-64.300;2023-08-17T04:28:36;9.20;86.00
81867;DHT22;71318;-36.550;-64.300;2023-08-17T04:31:02;9.20;85.50
81867;DHT22;71318;-36.550;-64.300;2023-08-17T04:33:29;9.20;85.20
81867;DHT22;71318;-36.550;-64.300;2023-08-17T04:35:55;9.20;85.10
81867;DHT22;71318;-36.550;-64.300;2023-08-17T04:38:22;9.20;85.00
81867;DHT22;71318;-36.550;-64.300;2023-08-17T04:40:48;9.20;84.60
81867;DHT22;71318;-36.550;-64.300;2023-08-17T04:43:15;9.20;84.40
81867;DHT22;71318;-36.550;-64.300;2023-08-17T04:45:41;9.20;84.40
81867;DHT22;71318;-36.550;-64.300;2023-08-17T04:48:08;9.20;84.30
81867;DHT22;71318;-36.550;-64.300;2023-08-17T04:50:34;9.20;84.60
81867;DHT22;71318;-36.550;-64.300;2023-08-17T04:53:01;9.10;84.90
81867;DHT22;71318;-36.550;-64.300;2023-08-17T04:55:28;9.10;85.20
81867;DHT22;71318;-36.550;-64.300;2023-08-17T04:57:57;9.10;85.50
81867;DHT22;71318;-36.550;-64.300;2023-08-17T05:00:27;9.10;85.80
81867;DHT22;71318;-36.550;-64.300;2023-08-17T05:02:56;9.00;86.60
81867;DHT22;71318;-36.550;-64.300;2023-08-17T05:05:23;9.00;86.60
81867;DHT22;71318;-36.550;-64.300;2023-08-17T05:07:49;9.00;87.30
81867;DHT22;71318;-36.550;-64.300;2023-08-17T05:10:16;9.00;87.20
81867;DHT22;71318;-36.550;-64.300;2023-08-17T05:12:43;9.00;87.70
81867;DHT22;71318;-36.550;-64.300;2023-08-17T05:15:09;8.90;87.80
81867;DHT22;71318;-36.550;-64.300;2023-08-17T05:17:36;8.90;89.40
81867;DHT22;71318;-36.550;-64.300;2023-08-17T05:20:03;8.80;90.00
81867;DHT22;71318;-36.550;-64.300;2023-08-17T05:22:30;8.90;89.80
81867;DHT22;71318;-36.550;-64.300;2023-08-17T05:24:56;8.80;89.90
81867;DHT22;71318;-36.550;-64.300;2023-08-17T05:27:23;8.80;90.40
81867;DHT22;71318;-36.550;-64.300;2023-08-17T05:29:49;8.80;90.40
81867;DHT22;71318;-36.550;-64.300;2023-08-17T05:32:16;8.80;91.10
81867;DHT22;71318;-36.550;-64.300;2023-08-17T05:34:42;8.80;91.00
81867;DHT22;71318;-36.550;-64.300;2023-08-17T05:37:09;8.80;90.20
81867;DHT22;71318;-36.550;-64.300;2023-08-17T05:39:35;8.90;89.70
81867;DHT22;71318;-36.550;-64.300;2023-08-17T05:42:02;8.90;88.80
81867;DHT22;71318;-36.550;-64.300;2023-08-17T05:44:28;8.90;88.20
81867;DHT22;71318;-36.550;-64.300;2023-08-17T05:46:55;8.80;88.20
81867;DHT22;71318;-36.550;-64.300;2023-08-17T05:49:21;8.80;88.40
81867;DHT22;71318;-36.550;-64.300;2023-08-17T05:51:48;8.70;88.70
81867;DHT22;71318;-36.550;-64.300;2023-08-17T05:54:14;8.70;89.30
81867;DHT22;71318;-36.550;-64.300;2023-08-17T05:56:40;8.70;89.30
81867;DHT22;71318;-36.550;-64.300;2023-08-17T05:59:12;8.60;90.20
81867;DHT22;71318;-36.550;-64.300;2023-08-17T06:01:38;8.50;92.90
81867;DHT22;71318;-36.550;-64.300;2023-08-17T06:04:06;8.30;94.10
81867;DHT22;71318;-36.550;-64.300;2023-08-17T06:06:32;8.30;95.10
81867;DHT22;71318;-36.550;-64.300;2023-08-17T06:08:59;8.10;97.50
81867;DHT22;71318;-36.550;-64.300;2023-08-17T06:11:26;8.00;99.50
81867;DHT22;71318;-36.550;-64.300;2023-08-17T06:13:52;7.90;99.90
81867;DHT22;71318;-36.550;-64.300;2023-08-17T06:16:19;7.80;99.90
81867;DHT22;71318;-36.550;-64.300;2023-08-17T06:18:45;7.70;99.90
81867;DHT22;71318;-36.550;-64.300;2023-08-17T06:21:12;7.70;99.90
81867;DHT22;71318;-36.550;-64.300;2023-08-17T06:23:38;7.60;99.90
81867;DHT22;71318;-36.550;-64.300;2023-08-17T06:26:05;7.60;99.90
81867;DHT22;71318;-36.550;-64.300;2023-08-17T06:28:31;7.60;99.90
81867;DHT22;71318;-36.550;-64.300;2023-08-17T06:30:57;7.50;99.90
81867;DHT22;71318;-36.550;-64.300;2023-08-17T06:33:24;7.50;99.90
81867;DHT22;71318;-36.550;-64.300;2023-08-17T06:35:51;7.50;99.90
81867;DHT22;71318;-36.550;-64.300;2023-08-17T06:38:17;7.50;99.90
81867;DHT22;71318;-36.550;-64.300;2023-08-17T06:40:45;7.40;99.90
81867;DHT22;71318;-36.550;-64.300;2023-08-17T06:43:11;7.40;99.90
81867;DHT22;71318;-36.550;-64.300;2023-08-17T06:45:38;7.40;99.90
81867;DHT22;71318;-36.550;-64.300;2023-08-17T06:48:05;7.40;99.90
81867;DHT22;71318;-36.550;-64.300;2023-08-17T06:50:31;7.40;99.90
81867;DHT22;71318;-36.550;-64.300;2023-08-17T06:52:58;7.40;99.90
81867;DHT22;71318;-36.550;-64.300;2023-08-17T06:55:24;7.40;99.90
81867;DHT22;71318;-36.550;-64.300;2023-08-17T06:57:50;7.40;99.90
81867;DHT22;71318;-36.550;-64.300;2023-08-17T07:00:18;7.40;99.90
81867;DHT22;71318;-36.550;-64.300;2023-08-17T07:02:47;7.30;99.90
81867;DHT22;71318;-36.550;-64.300;2023-08-17T07:05:17;7.30;99.90
81867;DHT22;71318;-36.550;-64.300;2023-08-17T07:07:44;7.30;99.90
81867;DHT22;71318;-36.550;-64.300;2023-08-17T07:10:10;7.30;99.90
81867;DHT22;71318;-36.550;-64.300;2023-08-17T07:12:40;7.30;99.90
81867;DHT22;71318;-36.550;-64.300;2023-08-17T07:15:07;7.30;99.90
81867;DHT22;71318;-36.550;-64.300;2023-08-17T07:17:33;7.30;99.90
81867;DHT22;71318;-36.550;-64.300;2023-08-17T07:20:00;7.30;99.90
81867;DHT22;71318;-36.550;-64.300;2023-08-17T07:22:26;7.30;99.90
81867;DHT22;71318;-36.550;-64.300;2023-08-17T07:24:53;7.40;99.90
81867;DHT22;71318;-36.550;-64.300;2023-08-17T07:27:19;7.40;99.90
81867;DHT22;71318;-36.550;-64.300;2023-08-17T07:29:45;7.30;99.90
81867;DHT22;71318;-36.550;-64.300;2023-08-17T07:32:12;7.30;99.90
81867;DHT22;71318;-36.550;-64.300;2023-08-17T07:34:38;7.30;99.90
81867;DHT22;71318;-36.550;-64.300;2023-08-17T07:37:05;7.30;99.90
81867;DHT22;71318;-36.550;-64.300;2023-08-17T07:39:32;7.10;99.90
81867;DHT22;71318;-36.550;-64.300;2023-08-17T07:41:58;6.90;99.90
81867;DHT22;71318;-36.550;-64.300;2023-08-17T07:44:25;6.90;99.90
81867;DHT22;71318;-36.550;-64.300;2023-08-17T07:46:51;6.90;99.90
81867;DHT22;71318;-36.550;-64.300;2023-08-17T07:49:18;6.90;99.90
81867;DHT22;71318;-36.550;-64.300;2023-08-17T07:51:45;6.90;99.90
81867;DHT22;71318;-36.550;-64.300;2023-08-17T07:54:12;6.90;99.90
81867;DHT22;71318;-36.550;-64.300;2023-08-17T07:56:38;6.90;99.90
81867;DHT22;71318;-36.550;-64.300;2023-08-17T07:59:05;6.80;99.90
81867;DHT22;71318;-36.550;-64.300;2023-08-17T08:01:31;6.80;99.90
81867;DHT22;71318;-36.550;-64.300;2023-08-17T08:03:57;6.80;99.90
81867;DHT22;71318;-36.550;-64.300;2023-08-17T08:06:24;6.40;99.90
81867;DHT22;71318;-36.550;-64.300;2023-08-17T08:08:50;6.40;99.90
81867;DHT22;71318;-36.550;-64.300;2023-08-17T08:11:17;6.40;99.90
81867;DHT22;71318;-36.550;-64.300;2023-08-17T08:13:43;6.30;99.90
81867;DHT22;71318;-36.550;-64.300;2023-08-17T08:16:10;6.30;99.90
81867;DHT22;71318;-36.550;-64.300;2023-08-17T08:18:36;6.40;99.90
81867;DHT22;71318;-36.550;-64.300;2023-08-17T08:21:02;6.40;99.90
81867;DHT22;71318;-36.550;-64.300;2023-08-17T08:23:29;6.40;99.90
81867;DHT22;71318;-36.550;-64.300;2023-08-17T08:25:55;6.40;99.90
81867;DHT22;71318;-36.550;-64.300;2023-08-17T08:28:24;6.40;99.90
81867;DHT22;71318;-36.550;-64.300;2023-08-17T08:30:53;6.40;99.90
81867;DHT22;71318;-36.550;-64.300;2023-08-17T08:33:20;6.40;99.90
81867;DHT22;71318;-36.550;-64.300;2023-08-17T08:35:46;6.40;99.90
81867;DHT22;71318;-36.550;-64.300;2023-08-17T08:38:13;6.30;99.90
81867;DHT22;71318;-36.550;-64.300;2023-08-17T08:40:40;6.30;99.90
81867;DHT22;71318;-36.550;-64.300;2023-08-17T08:43:07;6.30;99.90
81867;DHT22;71318;-36.550;-64.300;2023-08-17T08:45:35;6.30;99.90
81867;DHT22;71318;-36.550;-64.300;2023-08-17T08:48:01;6.40;99.90
81867;DHT22;71318;-36.550;-64.300;2023-08-17T08:50:29;6.40;99.90
81867;DHT22;71318;-36.550;-64.300;2023-08-17T08:52:58;6.50;99.90
81867;DHT22;71318;-36.550;-64.300;2023-08-17T08:55:29;6.50;99.90
81867;DHT22;71318;-36.550;-64.300;2023-08-17T08:57:56;6.50;99.90
81867;DHT22;71318;-36.550;-64.300;2023-08-17T09:00:23;6.50;99.90
81867;DHT22;71318;-36.550;-64.300;2023-08-17T09:02:51;6.50;99.90
81867;DHT22;71318;-36.550;-64.300;2023-08-17T09:05:18;6.50;99.90
81867;DHT22;71318;-36.550;-64.300;2023-08-17T09:07:44;6.50;99.90
81867;DHT22;71318;-36.550;-64.300;2023-08-17T09:10:11;6.60;99.90
81867;DHT22;71318;-36.550;-64.300;2023-08-17T09:12:39;6.50;99.90
81867;DHT22;71318;-36.550;-64.300;2023-08-17T09:15:05;6.60;99.90
81867;DHT22;71318;-36.550;-64.300;2023-08-17T09:17:32;6.60;99.90
81867;DHT22;71318;-36.550;-64.300;2023-08-17T09:20:01;6.60;99.90
81867;DHT22;71318;-36.550;-64.300;2023-08-17T09:22:39;6.60;99.90
81867;DHT22;71318;-36.550;-64.300;2023-08-17T09:25:06;6.60;99.90
81867;DHT22;71318;-36.550;-64.300;2023-08-17T09:27:32;6.50;99.90
81867;DHT22;71318;-36.550;-64.300;2023-08-17T09:30:06;6.50;99.90
81867;DHT22;71318;-36.550;-64.300;2023-08-17T09:32:33;6.50;99.90
81867;DHT22;71318;-36.550;-64.300;2023-08-17T09:35:01;6.50;99.90
81867;DHT22;71318;-36.550;-64.300;2023-08-17T09:37:27;6.50;99.90
81867;DHT22;71318;-36.550;-64.300;2023-08-17T09:39:55;6.50;99.90
81867;DHT22;71318;-36.550;-64.300;2023-08-17T09:42:21;6.50;99.90
81867;DHT22;71318;-36.550;-64.300;2023-08-17T09:44:48;6.40;99.90
81867;DHT22;71318;-36.550;-64.300;2023-08-17T09:47:17;6.40;99.90
81867;DHT22;71318;-36.550;-64.300;2023-08-17T09:49:53;6.50;99.90
81867;DHT22;71318;-36.550;-64.300;2023-08-17T09:52:23;6.50;99.90
81867;DHT22;71318;-36.550;-64.300;2023-08-17T09:54:52;6.50;99.90
81867;DHT22;71318;-36.550;-64.300;2023-08-17T09:57:20;6.50;99.90
81867;DHT22;71318;-36.550;-64.300;2023-08-17T09:59:46;6.40;99.90
81867;DHT22;71318;-36.550;-64.300;2023-08-17T10:02:19;6.40;99.90
81867;DHT22;71318;-36.550;-64.300;2023-08-17T10:04:50;6.40;99.90
81867;DHT22;71318;-36.550;-64.300;2023-08-17T10:07:18;6.40;99.90
81867;DHT22;71318;-36.550;-64.300;2023-08-17T10:09:47;6.40;99.90
81867;DHT22;71318;-36.550;-64.300;2023-08-17T10:12:16;6.40;99.90
81867;DHT22;71318;-36.550;-64.300;2023-08-17T10:14:45;6.40;99.90
81867;DHT22;71318;-36.550;-64.300;2023-08-17T10:17:15;6.30;99.90
81867;DHT22;71318;-36.550;-64.300;2023-08-17T10:19:46;6.30;99.90
81867;DHT22;71318;-36.550;-64.300;2023-08-17T10:24:44;6.30;99.90
81867;DHT22;71318;-36.550;-64.300;2023-08-17T10:27:11;6.20;99.90
81867;DHT22;71318;-36.550;-64.300;2023-08-17T10:29:38;6.20;99.90
81867;DHT22;71318;-36.550;-64.300;2023-08-17T10:32:07;6.20;99.90
81867;DHT22;71318;-36.550;-64.300;2023-08-17T10:34:34;6.20;99.90
81867;DHT22;71318;-36.550;-64.300;2023-08-17T10:37:01;6.10;99.90
81867;DHT22;71318;-36.550;-64.300;2023-08-17T10:39:28;6.10;99.90
81867;DHT22;71318;-36.550;-64.300;2023-08-17T10:41:56;6.10;99.90
81867;DHT22;71318;-36.550;-64.300;2023-08-17T10:50:06;6.00;99.90
81867;DHT22;71318;-36.550;-64.300;2023-08-17T10:52:35;6.00;99.90
81867;DHT22;71318;-36.550;-64.300;2023-08-17T10:55:06;6.00;99.90
81867;DHT22;71318;-36.550;-64.300;2023-08-17T11:02:45;5.90;99.90
81867;DHT22;71318;-36.550;-64.300;2023-08-17T11:05:12;5.90;99.90
81867;DHT22;71318;-36.550;-64.300;2023-08-17T11:07:40;6.00;99.90
81867;DHT22;71318;-36.550;-64.300;2023-08-17T11:12:40;5.80;99.90
81867;DHT22;71318;-36.550;-64.300;2023-08-17T11:15:09;5.90;99.90
81867;DHT22;71318;-36.550;-64.300;2023-08-17T11:17:35;5.90;99.90
81867;DHT22;71318;-36.550;-64.300;2023-08-17T11:20:04;5.90;99.90
81867;DHT22;71318;-36.550;-64.300;2023-08-17T11:22:31;6.00;99.90
81867;DHT22;71318;-36.550;-64.300;2023-08-17T11:24:58;5.90;99.90
81867;DHT22;71318;-36.550;-64.300;2023-08-17T11:27:25;6.00;99.90
81867;DHT22;71318;-36.550;-64.300;2023-08-17T11:29:52;6.10;99.90
81867;DHT22;71318;-36.550;-64.300;2023-08-17T11:32:18;6.10;99.90
81867;DHT22;71318;-36.550;-64.300;2023-08-17T11:34:45;6.10;99.90
81867;DHT22;71318;-36.550;-64.300;2023-08-17T11:37:17;6.20;99.90
81867;DHT22;71318;-36.550;-64.300;2023-08-17T11:40:04;6.30;99.90
81867;DHT22;71318;-36.550;-64.300;2023-08-17T11:42:30;6.30;99.90
81867;DHT22;71318;-36.550;-64.300;2023-08-17T11:44:57;6.30;99.90
81867;DHT22;71318;-36.550;-64.300;2023-08-17T11:47:23;6.30;99.90
81867;DHT22;71318;-36.550;-64.300;2023-08-17T11:49:50;6.30;99.90
81867;DHT22;71318;-36.550;-64.300;2023-08-17T11:52:17;6.40;99.90
81867;DHT22;71318;-36.550;-64.300;2023-08-17T11:54:43;6.40;99.90
81867;DHT22;71318;-36.550;-64.300;2023-08-17T11:57:10;6.50;99.90
81867;DHT22;71318;-36.550;-64.300;2023-08-17T11:59:39;6.50;99.90
81867;DHT22;71318;-36.550;-64.300;2023-08-17T12:02:06;6.50;99.90
81867;DHT22;71318;-36.550;-64.300;2023-08-17T12:04:33;6.50;99.90
81867;DHT22;71318;-36.550;-64.300;2023-08-17T12:07:01;6.60;99.90
81867;DHT22;71318;-36.550;-64.300;2023-08-17T12:09:31;6.60;99.90
81867;DHT22;71318;-36.550;-64.300;2023-08-17T12:12:00;6.60;99.90
81867;DHT22;71318;-36.550;-64.300;2023-08-17T12:14:27;6.60;99.90
81867;DHT22;71318;-36.550;-64.300;2023-08-17T12:16:56;6.70;99.90
81867;DHT22;71318;-36.550;-64.300;2023-08-17T12:19:25;6.70;99.90
81867;DHT22;71318;-36.550;-64.300;2023-08-17T12:21:52;6.80;99.90
81867;DHT22;71318;-36.550;-64.300;2023-08-17T12:24:18;6.80;99.90
81867;DHT22;71318;-36.550;-64.300;2023-08-17T12:26:46;6.80;99.90
81867;DHT22;71318;-36.550;-64.300;2023-08-17T12:29:13;6.80;99.90
81867;DHT22;71318;-36.550;-64.300;2023-08-17T12:31:39;6.80;99.90
81867;DHT22;71318;-36.550;-64.300;2023-08-17T12:34:06;6.80;99.90
81867;DHT22;71318;-36.550;-64.300;2023-08-17T12:36:32;6.90;99.90
81867;DHT22;71318;-36.550;-64.300;2023-08-17T12:38:59;6.90;99.90
81867;DHT22;71318;-36.550;-64.300;2023-08-17T12:41:25;6.90;99.90
81867;DHT22;71318;-36.550;-64.300;2023-08-17T12:43:55;7.00;99.90
81867;DHT22;71318;-36.550;-64.300;2023-08-17T12:46:27;7.00;99.90
81867;DHT22;71318;-36.550;-64.300;2023-08-17T12:48:53;7.10;99.90
81867;DHT22;71318;-36.550;-64.300;2023-08-17T12:51:20;7.20;99.90
81867;DHT22;71318;-36.550;-64.300;2023-08-17T12:53:49;7.20;99.90
81867;DHT22;71318;-36.550;-64.300;2023-08-17T12:56:16;7.30;99.90
81867;DHT22;71318;-36.550;-64.300;2023-08-17T12:58:42;7.40;99.90
81867;DHT22;71318;-36.550;-64.300;2023-08-17T13:01:09;7.40;99.90
81867;DHT22;71318;-36.550;-64.300;2023-08-17T13:03:40;7.50;99.90
81867;DHT22;71318;-36.550;-64.300;2023-08-17T13:06:11;7.60;99.90
81867;DHT22;71318;-36.550;-64.300;2023-08-17T13:08:40;7.60;99.90
81867;DHT22;71318;-36.550;-64.300;2023-08-17T13:11:07;7.80;99.90
81867;DHT22;71318;-36.550;-64.300;2023-08-17T13:13:36;7.80;99.90
81867;DHT22;71318;-36.550;-64.300;2023-08-17T13:16:06;8.00;99.90
81867;DHT22;71318;-36.550;-64.300;2023-08-17T13:18:33;8.10;99.90
81867;DHT22;71318;-36.550;-64.300;2023-08-17T13:20:59;8.20;99.90
81867;DHT22;71318;-36.550;-64.300;2023-08-17T13:23:25;8.30;99.90
81867;DHT22;71318;-36.550;-64.300;2023-08-17T13:25:52;8.40;99.90
81867;DHT22;71318;-36.550;-64.300;2023-08-17T13:28:19;8.40;99.90
81867;DHT22;71318;-36.550;-64.300;2023-08-17T13:30:45;8.50;99.90
81867;DHT22;71318;-36.550;-64.300;2023-08-17T13:33:12;8.60;99.90
81867;DHT22;71318;-36.550;-64.300;2023-08-17T13:35:38;8.60;99.90
81867;DHT22;71318;-36.550;-64.300;2023-08-17T13:38:05;8.70;99.90
81867;DHT22;71318;-36.550;-64.300;2023-08-17T13:40:32;8.80;99.90
81867;DHT22;71318;-36.550;-64.300;2023-08-17T13:42:59;8.80;99.90
81867;DHT22;71318;-36.550;-64.300;2023-08-17T13:45:26;8.90;99.90
81867;DHT22;71318;-36.550;-64.300;2023-08-17T13:47:56;9.00;99.90
81867;DHT22;71318;-36.550;-64.300;2023-08-17T13:50:26;9.10;99.90
81867;DHT22;71318;-36.550;-64.300;2023-08-17T13:52:52;9.10;99.90
81867;DHT22;71318;-36.550;-64.300;2023-08-17T13:55:19;9.20;99.90
81867;DHT22;71318;-36.550;-64.300;2023-08-17T13:57:45;9.40;99.90
81867;DHT22;71318;-36.550;-64.300;2023-08-17T14:00:13;9.80;99.90
81867;DHT22;71318;-36.550;-64.300;2023-08-17T14:02:41;10.00;99.90
81867;DHT22;71318;-36.550;-64.300;2023-08-17T14:05:08;10.10;99.90
81867;DHT22;71318;-36.550;-64.300;2023-08-17T14:07:36;9.90;99.90
81867;DHT22;71318;-36.550;-64.300;2023-08-17T14:10:03;9.80;99.90
81867;DHT22;71318;-36.550;-64.300;2023-08-17T14:12:30;9.60;99.90
81867;DHT22;71318;-36.550;-64.300;2023-08-17T14:14:58;9.70;99.90
81867;DHT22;71318;-36.550;-64.300;2023-08-17T14:17:24;9.80;99.90
81867;DHT22;71318;-36.550;-64.300;2023-08-17T14:19:51;9.90;99.90
81867;DHT22;71318;-36.550;-64.300;2023-08-17T14:22:17;9.90;99.90
81867;DHT22;71318;-36.550;-64.300;2023-08-17T14:24:44;10.10;99.90
81867;DHT22;71318;-36.550;-64.300;2023-08-17T14:27:10;10.00;99.90
81867;DHT22;71318;-36.550;-64.300;2023-08-17T14:42:47;9.80;98.60
81867;DHT22;71318;-36.550;-64.300;2023-08-17T14:45:17;10.00;99.90
81867;DHT22;71318;-36.550;-64.300;2023-08-17T14:47:43;9.70;99.60
81867;DHT22;71318;-36.550;-64.300;2023-08-17T14:50:10;9.60;99.40
81867;DHT22;71318;-36.550;-64.300;2023-08-17T14:52:36;9.60;99.90
81867;DHT22;71318;-36.550;-64.300;2023-08-17T14:55:03;9.60;99.90
81867;DHT22;71318;-36.550;-64.300;2023-08-17T14:57:30;9.60;99.90
81867;DHT22;71318;-36.550;-64.300;2023-08-17T14:59:56;9.70;99.90
81867;DHT22;71318;-36.550;-64.300;2023-08-17T15:02:23;9.80;99.90
81867;DHT22;71318;-36.550;-64.300;2023-08-17T15:04:49;9.80;99.90
81867;DHT22;71318;-36.550;-64.300;2023-08-17T15:07:16;9.80;99.90
81867;DHT22;71318;-36.550;-64.300;2023-08-17T15:09:48;9.80;99.50
81867;DHT22;71318;-36.550;-64.300;2023-08-17T15:12:16;9.80;99.90
81867;DHT22;71318;-36.550;-64.300;2023-08-17T15:14:42;9.80;99.70
81867;DHT22;71318;-36.550;-64.300;2023-08-17T15:17:09;9.70;99.90
81867;DHT22;71318;-36.550;-64.300;2023-08-17T15:19:38;9.80;99.90
81867;DHT22;71318;-36.550;-64.300;2023-08-17T15:22:04;9.80;99.90
81867;DHT22;71318;-36.550;-64.300;2023-08-17T15:24:31;9.70;99.10
81867;DHT22;71318;-36.550;-64.300;2023-08-17T15:26:57;9.70;99.90
81867;DHT22;71318;-36.550;-64.300;2023-08-17T15:29:24;9.70;99.90
81867;DHT22;71318;-36.550;-64.300;2023-08-17T15:31:50;9.70;99.90
81867;DHT22;71318;-36.550;-64.300;2023-08-17T15:34:18;9.70;99.50
81867;DHT22;71318;-36.550;-64.300;2023-08-17T15:36:46;9.70;99.70